Latest Weather Observations for Dunalley

IDT60901

Issued at 1:41 pm EDT Tuesday 21 February 2017 (issued every 10 minutes, with the page automatically refreshed every 10 minutes)

About weather observations | Map of Hobart area stations | Latest observations for Hobart area | Other Formats
Station Details ID: 094254 Name: DUNALLEY (STROUD POINT) Lat: -42.90 Lon: 147.79 Height: 12.43 m
Data from the previous 72 hours. | See also: Recent months at Dunalley
Date/Time
EDT
Temp
°C
App
Temp
°C
Dew
Point
°C
Rel
Hum
%
Delta-T
°C
Wind Press
QNH
hPa
Press
MSL
hPa
Rain since
9am
mm
Dir  Spd
km/h
Gust
km/h
Spd
kts
Gust
kts
21/01:30pm 17.8 14.6 5.1 43 6.1 WSW 11 15 6 8 1017.6 1017.6 0.0
21/01:00pm 17.4 13.9 5.4 45 5.8 WSW 13 19 7 10 1017.7 1017.7 0.0
21/12:30pm 17.4 12.6 5.4 45 5.8 SW 20 26 11 14 1017.8 1017.8 0.0
21/12:00pm 17.1 12.1 6.3 49 5.3 SW 22 30 12 16 1017.8 1017.8 0.0
21/11:30am 16.9 11.1 6.4 50 5.2 WSW 26 35 14 19 1017.9 1017.9 0.0
21/11:00am 15.9 10.4 5.8 51 4.8 WSW 24 32 13 17 1017.9 1017.9 0.0
21/10:30am 16.1 10.2 6.0 51 4.9 WSW 26 32 14 17 1017.5 1017.5 0.0
21/10:00am 15.2 7.5 5.4 52 4.6 WSW 35 43 19 23 1017.6 1017.6 0.0
21/09:30am 14.8 8.0 5.1 52 4.6 W 30 37 16 20 1017.2 1017.2 0.0
21/09:00am 15.0 8.2 6.8 58 4.0 WSW 32 41 17 22 1017.1 1017.1 3.4
21/08:30am 14.4 7.5 6.5 59 3.8 WSW 32 39 17 21 1016.9 1016.9 3.4
21/08:00am 13.9 8.4 7.4 65 3.2 W 26 33 14 18 1016.3 1016.3 3.4
21/07:30am 13.8 7.8 7.1 64 3.3 W 28 39 15 21 1015.8 1015.8 3.4
21/07:00am 13.8 6.3 6.4 61 3.5 WSW 35 41 19 22 1015.3 1015.3 3.4
21/06:30am 13.6 5.5 6.9 64 3.2 WSW 39 46 21 25 1014.8 1014.8 3.4
21/06:00am 13.5 5.3 6.4 62 3.4 WSW 39 48 21 26 1014.1 1014.1 3.4
21/05:30am 13.4 5.3 7.2 66 3.0 WSW 39 46 21 25 1014.0 1014.0 3.4
21/05:00am 13.4 6.0 6.7 64 3.2 W 35 43 19 23 1013.7 1013.7 3.4
21/04:30am 13.3 6.4 7.1 66 3.0 WSW 33 41 18 22 1013.4 1013.4 3.4
21/04:00am 13.7 6.3 6.8 63 3.3 WSW 35 41 19 22 1013.2 1013.2 3.4
21/03:30am 13.6 6.7 7.4 66 3.0 W 33 37 18 20 1013.2 1013.2 3.4
21/03:00am 13.9 5.8 7.0 63 3.4 WSW 39 44 21 24 1013.0 1013.0 3.4
21/02:30am 13.8 5.7 6.9 63 3.3 WSW 39 48 21 26 1012.7 1012.7 3.4
21/02:00am 13.8 5.5 7.6 66 3.1 WSW 41 50 22 27 1012.6 1012.6 3.4
21/01:30am 13.6 5.7 7.8 68 2.9 WSW 39 48 21 26 1012.5 1012.5 3.4
21/01:00am 13.8 5.2 8.2 69 2.8 WSW 43 54 23 29 1012.5 1012.5 3.4
21/12:30am 13.9 5.3 8.3 69 2.8 WSW 43 52 23 28 1012.3 1012.3 3.4
21/12:00am 14.0 5.5 8.6 70 2.7 SW 43 54 23 29 1012.1 1012.1 3.4
 
Date/Time
EDT
Temp
°C
App
Temp
°C
Dew
Point
°C
Rel
Hum
%
Delta-T
°C
Wind Press
QNH
hPa
Press
MSL
hPa
Rain since
9am
mm
Dir  Spd
km/h
Gust
km/h
Spd
kts
Gust
kts
20/11:30pm 13.5 5.7 9.6 77 2.0 WSW 41 46 22 25 1012.2 1012.2 3.4
20/11:00pm 13.6 5.8 9.6 77 2.0 SW 41 50 22 27 1012.1 1012.1 3.4
20/10:30pm 14.3 7.0 8.9 70 2.7 SW 37 46 20 25 1011.9 1011.9 3.4
20/10:00pm 14.3 7.1 9.3 72 2.6 SW 37 48 20 26 1011.9 1011.9 3.4
20/09:30pm 14.2 7.3 8.8 70 2.7 SW 35 43 19 23 1011.5 1011.5 3.4
20/09:00pm 14.3 7.3 10.1 76 2.2 SW 37 46 20 25 1011.0 1011.0 3.4
20/08:30pm 14.7 8.0 9.5 71 2.7 SW 35 46 19 25 1010.5 1010.5 3.4
20/08:00pm 14.6 7.6 9.8 73 2.5 SSW 37 43 20 23 1010.1 1010.1 3.4
20/07:30pm 14.9 7.6 10.3 74 2.4 SSW 39 50 21 27 1009.7 1009.7 3.4
20/07:00pm 15.0 8.8 10.2 73 2.5 SSW 33 43 18 23 1009.2 1009.2 3.4
20/06:30pm 15.1 8.9 10.1 72 2.6 SSW 33 46 18 25 1008.8 1008.8 3.4
20/06:00pm 15.2 9.0 10.0 71 2.7 SSW 33 39 18 21 1008.5 1008.5 3.4
20/05:30pm 15.8 9.6 9.9 68 3.1 SSW 33 41 18 22 1008.1 1008.1 3.4
20/05:00pm 15.4 9.6 10.8 74 2.4 SSW 32 41 17 22 1007.8 1007.8 3.4
20/04:30pm 15.5 10.5 11.1 75 2.3 S 28 32 15 17 1007.6 1007.6 3.4
20/04:00pm 15.5 11.5 13.0 85 1.4 W 26 30 14 16 1007.3 1007.3 3.4
20/03:30pm 14.1 9.1 12.3 89 1.0 WSW 30 33 16 18 1007.4 1007.4 3.4
20/03:00pm 13.0 9.8 11.1 88 1.0 SSW 19 24 10 13 1007.7 1007.7 3.2
20/02:30pm 14.3 10.8 12.2 87 1.1 SSW 22 30 12 16 1007.6 1007.6 1.8
20/02:00pm 14.7 10.6 12.7 88 1.1 WSW 26 32 14 17 1007.3 1007.3 1.6
20/01:30pm 14.0 9.7 12.0 88 1.1 SW 26 32 14 17 1007.4 1007.4 1.4
20/01:00pm 15.2 9.4 11.6 79 1.9 SW 33 48 18 26 1007.2 1007.2 0.0
20/12:59pm 15.2 9.6 11.6 79 1.9 SW 32 48 17 26 1007.2 1007.2 0.0
20/12:30pm 16.7 12.5 11.2 70 3.0 SW 24 30 13 16 1007.2 1007.2 0.0
20/12:00pm 16.8 13.7 11.7 72 2.8 SW 19 24 10 13 1007.5 1007.5 0.0
20/11:30am 16.3 13.0 11.5 73 2.6 WSW 20 24 11 13 1007.7 1007.7 0.0
20/11:00am 14.9 10.8 11.5 80 1.8 SW 24 28 13 15 1007.8 1007.8 0.0
20/10:30am 13.7 10.1 10.7 82 1.6 W 20 24 11 13 1007.8 1007.8 0.0
20/10:00am 13.3 10.1 10.1 81 1.7 W 17 22 9 12 1008.0 1008.0 0.0
20/09:30am 13.4 10.0 9.1 75 2.2 W 17 22 9 12 1007.9 1007.9 0.0
20/09:00am 12.4 9.3 8.7 78 1.8 W 15 19 8 10 1007.7 1007.7 0.0
20/08:30am 11.8 8.9 8.3 79 1.7 W 13 17 7 9 1007.8 1007.8 0.0
20/08:00am 11.6 8.8 8.5 81 1.5 W 13 19 7 10 1007.4 1007.4 0.0
20/07:30am 11.2 8.3 8.1 81 1.5 WNW 13 19 7 10 1007.3 1007.3 0.0
20/07:00am 10.8 7.4 7.7 81 1.5 WNW 15 20 8 11 1007.2 1007.2 0.0
20/06:30am 10.8 7.5 7.9 82 1.4 WNW 15 19 8 10 1006.9 1006.9 0.0
20/06:00am 10.8 7.8 7.7 81 1.5 WNW 13 17 7 9 1006.6 1006.6 0.0
20/05:30am 10.7 7.7 7.8 82 1.4 WNW 13 17 7 9 1006.6 1006.6 0.0
20/05:00am 10.6 7.6 7.8 83 1.4 WNW 13 17 7 9 1006.4 1006.4 0.0
20/04:30am 10.2 7.5 7.4 83 1.3 WNW 11 13 6 7 1006.5 1006.5 0.0
20/04:00am 10.6 8.4 7.7 82 1.4 W 9 13 5 7 1006.5 1006.5 0.0
20/03:30am 11.1 8.2 8.1 82 1.5 W 13 15 7 8 1006.3 1006.3 0.0
20/03:00am 11.7 9.2 8.4 80 1.6 WNW 11 15 6 8 1006.5 1006.5 0.0
20/02:30am 12.3 9.9 8.8 79 1.7 WNW 11 15 6 8 1006.5 1006.5 0.0
20/02:00am 12.1 9.7 8.8 80 1.7 WNW 11 15 6 8 1006.3 1006.3 0.0
20/01:30am 11.4 8.4 7.9 79 1.7 W 13 17 7 9 1006.1 1006.1 0.0
20/01:00am 11.5 8.6 8.2 80 1.6 WNW 13 20 7 11 1006.4 1006.4 0.0
20/12:30am 11.5 8.2 8.2 80 1.6 N 15 24 8 13 1006.1 1006.1 0.0
20/12:00am 11.4 9.3 8.1 80 1.6 ENE 9 13 5 7 1005.9 1005.9 0.0
 
Date/Time
EDT
Temp
°C
App
Temp
°C
Dew
Point
°C
Rel
Hum
%
Delta-T
°C
Wind Press
QNH
hPa
Press
MSL
hPa
Rain since
9am
mm
Dir  Spd
km/h
Gust
km/h
Spd
kts
Gust
kts
19/11:30pm 12.7 12.3 8.2 74 2.2 CALM 0 0 0 0 1005.9 1005.9 0.0
19/11:00pm 13.2 12.3 9.1 76 2.1 ENE 4 6 2 3 1006.4 1006.4 0.0
19/10:30pm 13.6 13.0 8.9 73 2.4 ENE 2 4 1 2 1006.4 1006.4 0.0
19/10:00pm 13.6 13.1 8.0 69 2.8 CALM 0 0 0 0 1006.2 1006.2 0.0
19/09:30pm 13.5 12.7 8.1 70 2.7 ENE 2 4 1 2 1006.0 1006.0 0.0
19/09:00pm 13.4 12.5 7.8 69 2.8 ENE 2 4 1 2 1005.8 1005.8 0.0
19/08:30pm 14.1 11.5 7.9 66 3.1 E 11 17 6 9 1005.2 1005.2 0.0
19/08:00pm 14.4 11.5 8.1 66 3.2 ENE 13 15 7 8 1004.6 1004.6 0.0
19/07:30pm 14.8 12.6 7.8 63 3.5 ENE 9 13 5 7 1004.4 1004.4 0.0
19/07:00pm 15.1 11.5 6.7 57 4.1 ENE 15 20 8 11 1004.2 1004.2 0.0
19/06:30pm 16.0 11.6 6.4 53 4.7 NE 19 24 10 13 1003.9 1003.9 0.0
19/06:00pm 17.7 13.3 7.2 50 5.3 ENE 20 28 11 15 1003.7 1003.7 0.0
19/05:30pm 17.9 13.3 6.4 47 5.7 ENE 20 30 11 16 1003.6 1003.6 0.0
19/05:00pm 18.1 13.8 6.9 48 5.6 ENE 19 24 10 13 1003.4 1003.4 0.0
19/04:30pm 16.1 12.5 6.8 54 4.6 NE 15 19 8 10 1003.5 1003.5 0.0
19/04:00pm 16.3 13.1 6.7 53 4.7 NE 13 22 7 12 1003.5 1003.5 0.0
19/03:30pm 18.5 16.2 7.6 49 5.5 S 9 17 5 9 1003.5 1003.5 0.0
19/03:00pm 17.8 15.3 6.7 48 5.5 ENE 9 20 5 11 1003.5 1003.5 0.0
19/02:30pm 18.4 14.7 6.3 45 6.0 NE 15 22 8 12 1003.6 1003.6 0.0
19/02:00pm 16.1 12.5 6.8 54 4.6 ENE 15 22 8 12 1003.7 1003.7 0.0
19/01:30pm 17.4 13.1 7.2 51 5.1 NE 19 24 10 13 1003.8 1003.8 0.0
19/01:00pm 18.1 14.2 6.9 48 5.6 ENE 17 22 9 12 1003.8 1003.8 0.0
19/12:30pm 16.9 12.8 6.4 50 5.2 ENE 17 22 9 12 1004.0 1004.0 0.0
19/12:00pm 17.2 13.3 7.3 52 5.0 ENE 17 22 9 12 1004.3 1004.3 0.0
19/11:30am 15.0 11.0 6.8 58 4.0 ENE 17 24 9 13 1004.5 1004.5 0.0
19/11:00am 16.1 12.7 7.6 57 4.3 ENE 15 20 8 11 1004.5 1004.5 0.0
19/10:30am 14.3 10.8 7.4 63 3.4 ENE 15 19 8 10 1004.4 1004.4 0.0
19/10:00am 13.0 10.0 5.9 62 3.4 E 11 19 6 10 1004.2 1004.2 0.0
19/09:30am 12.9 10.9 6.3 64 3.1 E 6 9 3 5 1003.9 1003.9 0.0
19/09:00am 12.6 10.8 5.3 61 3.4 E 4 9 2 5 1003.7 1003.7 3.4
19/08:30am 12.3 10.2 5.9 65 3.0 E 6 11 3 6 1003.4 1003.4 3.4
19/08:00am 11.4 9.2 5.3 66 2.8 E 6 11 3 6 1003.2 1003.2 3.4
19/07:30am 11.8 8.4 5.7 66 2.8 E 13 24 7 13 1003.3 1003.3 3.4
19/07:00am 11.5 7.9 5.2 65 2.9 ESE 13 20 7 11 1003.2 1003.2 3.4
19/06:30am 10.8 6.5 5.1 68 2.6 ENE 17 26 9 14 1003.0 1003.0 3.4
19/06:00am 11.0 7.4 4.9 66 2.8 ENE 13 24 7 13 1002.7 1002.7 3.4
19/05:30am 10.5 6.9 4.9 68 2.5 ENE 13 17 7 9 1002.6 1002.6 3.4
19/05:00am 10.4 8.0 5.2 70 2.4 NNE 7 15 4 8 1002.5 1002.5 3.4
19/04:30am 10.5 8.0 4.9 68 2.5 N 7 15 4 8 1002.6 1002.6 3.4
19/04:00am 10.7 7.3 4.0 63 3.0 N 11 17 6 9 1002.5 1002.5 3.4
19/03:30am 10.9 7.3 4.8 66 2.8 N 13 19 7 10 1002.9 1002.9 3.4
19/03:00am 11.4 9.1 4.8 64 3.0 N 6 9 3 5 1003.2 1003.2 3.4
19/02:30am 11.4 8.6 3.4 58 3.5 NNW 7 9 4 5 1003.5 1003.5 3.4
19/02:00am 11.5 8.7 3.3 57 3.6 NNW 7 9 4 5 1003.8 1003.8 3.4
19/01:30am 11.3 8.6 3.6 59 3.4 NNW 7 9 4 5 1004.1 1004.1 3.4
19/01:00am 11.2 8.2 4.0 61 3.2 NNW 9 15 5 8 1004.5 1004.5 3.4
19/12:30am 12.0 8.5 3.5 56 3.8 NNW 11 19 6 10 1004.3 1004.3 3.4
19/12:00am 11.4 8.5 4.4 62 3.2 NNE 9 15 5 8 1004.5 1004.5 3.4
 
Date/Time
EDT
Temp
°C
App
Temp
°C
Dew
Point
°C
Rel
Hum
%
Delta-T
°C
Wind Press
QNH
hPa
Press
MSL
hPa
Rain since
9am
mm
Dir  Spd
km/h
Gust
km/h
Spd
kts
Gust
kts
18/11:30pm 11.4 9.9 9.1 86 1.1 NNE 7 9 4 5 1004.9 1004.9 3.4
18/11:00pm 11.6 10.1 9.3 86 1.2 NNE 7 9 4 5 1005.2 1005.2 3.4
18/10:30pm 11.2 9.7 8.6 84 1.3 NNE 6 7 3 4 1005.2 1005.2 3.4
18/10:00pm 11.3 10.1 8.2 81 1.5 NNE 4 6 2 3 1005.6 1005.6 3.4
18/09:30pm 10.4 8.7 7.5 82 1.4 NNE 6 7 3 4 1005.7 1005.7 3.4
18/09:00pm 11.7 10.0 8.2 79 1.7 NNE 7 9 4 5 1005.4 1005.4 3.4
18/08:30pm 11.7 9.8 7.6 76 2.0 NNE 7 9 4 5 1005.0 1005.0 3.4
18/08:00pm 11.9 9.0 8.0 77 1.9 NE 13 20 7 11 1004.8 1004.8 3.4
18/07:30pm 12.4 8.5 8.7 78 1.8 NE 19 22 10 12 1004.6 1004.6 3.4
18/07:00pm 12.8 9.2 8.5 75 2.1 NE 17 20 9 11 1004.6 1004.6 3.4
18/06:30pm 12.8 9.3 8.9 77 2.0 NE 17 22 9 12 1004.6 1004.6 3.4
18/06:00pm 13.0 9.1 9.4 79 1.8 NE 20 26 11 14 1004.7 1004.7 3.4
18/05:30pm 13.7 8.4 8.3 70 2.7 NNE 26 33 14 18 1004.8 1004.8 0.4
18/05:00pm 15.6 11.0 5.5 51 4.8 ENE 19 22 10 12 1004.4 1004.4 0.0
18/04:30pm 17.2 14.5 3.8 41 6.2 SSW 7 9 4 5 1004.7 1004.7 0.0
18/04:00pm 16.7 11.3 6.5 51 5.0 WSW 24 30 13 16 1005.0 1005.0 0.0
18/03:30pm 17.1 10.6 6.3 49 5.3 WSW 30 37 16 20 1004.5 1004.5 0.0
18/03:00pm 19.8 12.0 1.7 30 8.3 WSW 32 41 17 22 1004.3 1004.3 0.0
18/02:30pm 19.1 14.3 4.8 39 6.9 SSW 19 26 10 14 1004.8 1004.8 0.0
18/02:00pm 17.8 12.7 4.0 40 6.5 WSW 20 30 11 16 1005.0 1005.0 0.0

Latest Capital City Observations: Canberra | Sydney | Melbourne | Brisbane | Adelaide | Perth | Hobart | Darwin

Other Formats:

Comma delimited format used in spreadsheet applications
http://www.bom.gov.au/fwo/IDT60901/IDT60901.94951.axf

JavaScript Object Notation format (JSON) in row-major order
http://www.bom.gov.au/fwo/IDT60901/IDT60901.94951.json